createdAt,value
2023-03-24T00:01:09.688Z,100776.22
2023-03-24T00:03:38.109Z,100773.69
2023-03-24T00:06:07.365Z,100772.44
2023-03-24T00:08:37.024Z,100766.81
2023-03-24T00:11:07.504Z,100760.34
2023-03-24T00:13:39.084Z,100774.97
2023-03-24T00:16:12.433Z,100776.91
2023-03-24T00:18:40.830Z,100776.75
2023-03-24T00:21:09.186Z,100775.09
2023-03-24T00:23:36.804Z,100784.63
2023-03-24T00:26:09.012Z,100781.84
2023-03-24T00:28:37.344Z,100785.22
2023-03-24T00:31:06.522Z,100783.44
2023-03-24T00:33:35.275Z,100774.75
2023-03-24T00:36:05.704Z,100764.53
2023-03-24T00:38:34.911Z,100778.47
2023-03-24T00:41:02.626Z,100776.16
2023-03-24T00:43:30.829Z,100778.78
2023-03-24T00:46:02.015Z,100777.06
2023-03-24T00:48:30.981Z,100775.19
2023-03-24T00:51:02.782Z,100769.94
2023-03-24T00:53:30.458Z,100782.34
2023-03-24T00:55:58.686Z,100764.59
2023-03-24T00:58:26.339Z,100763.09
2023-03-24T01:00:57.326Z,100772.50
2023-03-24T01:03:27.736Z,100773.75
2023-03-24T01:06:02.941Z,100789.50
2023-03-24T01:08:30.978Z,100779.88
2023-03-24T01:11:01.296Z,100789.53
2023-03-24T01:13:30.058Z,100783.41
2023-03-24T01:15:58.571Z,100778.84
2023-03-24T01:18:27.763Z,100764.91
2023-03-24T01:20:55.292Z,100776.16
2023-03-24T01:23:26.125Z,100761.41
2023-03-24T01:25:54.448Z,100749.41
2023-03-24T01:28:25.099Z,100751.91
2023-03-24T01:30:54.287Z,100729.59
2023-03-24T01:33:22.360Z,100737.88
2023-03-24T01:35:50.144Z,100729.63
2023-03-24T01:38:18.221Z,100726.50
2023-03-24T01:40:47.511Z,100730.94
2023-03-24T01:43:27.918Z,100732.69
2023-03-24T01:46:08.192Z,100735.97
2023-03-24T01:48:41.803Z,100723.59
2023-03-24T01:51:22.757Z,100727.91
2023-03-24T01:54:02.833Z,100730.16
2023-03-24T01:56:34.642Z,100725.66
2023-03-24T01:59:10.537Z,100719.06
2023-03-24T02:01:44.929Z,100729.34
2023-03-24T02:04:38.852Z,100730.94
2023-03-24T02:07:38.263Z,100739.91
2023-03-24T02:10:13.838Z,100730.22
2023-03-24T02:12:44.658Z,100722.09
2023-03-24T02:15:14.840Z,100718.97
2023-03-24T02:17:57.280Z,100725.44
2023-03-24T02:20:50.813Z,100726.84
2023-03-24T02:23:31.236Z,100721.72
2023-03-24T02:26:19.513Z,100723.50
2023-03-24T02:29:18.263Z,100719.22
2023-03-24T02:32:00.742Z,100711.53
2023-03-24T02:35:14.273Z,100713.22
2023-03-24T02:37:47.870Z,100707.84
2023-03-24T02:40:17.306Z,100703.13
2023-03-24T02:43:14.258Z,100688.09
2023-03-24T02:46:20.177Z,100704.63
2023-03-24T02:49:07.650Z,100690.59
2023-03-24T02:51:56.182Z,100704.25
2023-03-24T02:54:54.619Z,100699.63
2023-03-24T02:57:29.941Z,100691.97
2023-03-24T03:00:33.188Z,100683.84
2023-03-24T03:03:39.598Z,100692.69
2023-03-24T03:06:13.682Z,100695.47
2023-03-24T03:08:43.055Z,100691.81
2023-03-24T03:11:14.600Z,100692.72
2023-03-24T03:13:52.612Z,100692.72
2023-03-24T03:16:34.880Z,100693.63
2023-03-24T03:19:09.977Z,100688.31
2023-03-24T03:21:43.492Z,100689.25
2023-03-24T03:24:15.634Z,100689.41
2023-03-24T03:26:47.380Z,100689.63
2023-03-24T03:29:22.123Z,100690.56
2023-03-24T03:31:59.279Z,100679.97
2023-03-24T03:34:41.124Z,100688.66
2023-03-24T03:37:11.624Z,100685.50
2023-03-24T03:39:50.510Z,100669.69
2023-03-24T03:42:19.142Z,100672.59
2023-03-24T03:44:47.075Z,100678.75
2023-03-24T03:47:15.832Z,100673.47
2023-03-24T03:49:46.294Z,100675.13
2023-03-24T03:52:14.660Z,100674.09
2023-03-24T03:54:44.022Z,100670.63
2023-03-24T03:57:13.520Z,100668.97
2023-03-24T04:00:20.427Z,100659.41
2023-03-24T04:03:42.163Z,100664.63
2023-03-24T04:06:33.172Z,100658.41
2023-03-24T04:09:13.027Z,100662.81
2023-03-24T04:11:42.613Z,100674.31
2023-03-24T04:14:41.238Z,100669.16
2023-03-24T04:18:06.510Z,100662.16
2023-03-24T04:21:03.201Z,100666.47
2023-03-24T04:23:33.883Z,100668.31
2023-03-24T04:26:06.874Z,100678.91
2023-03-24T04:28:48.111Z,100671.00
2023-03-24T04:31:23.539Z,100674.34
2023-03-24T04:34:03.599Z,100663.84
2023-03-24T04:37:02.850Z,100676.03
2023-03-24T04:39:43.229Z,100683.06
2023-03-24T04:42:28.534Z,100672.97
2023-03-24T04:44:57.725Z,100673.84
2023-03-24T04:47:57.042Z,100674.78
2023-03-24T04:50:40.548Z,100658.28
2023-03-24T04:53:14.102Z,100660.81
2023-03-24T04:55:51.175Z,100661.00
2023-03-24T04:58:37.274Z,100667.84
2023-03-24T05:01:06.131Z,100665.25
2023-03-24T05:03:39.936Z,100669.44
2023-03-24T05:06:08.446Z,100679.78
2023-03-24T05:08:36.588Z,100673.78
2023-03-24T05:11:04.324Z,100684.25
2023-03-24T05:13:33.493Z,100685.88
2023-03-24T05:16:03.102Z,100692.84
2023-03-24T05:18:41.006Z,100684.38
2023-03-24T05:21:09.332Z,100691.34
2023-03-24T05:23:37.353Z,100694.88
2023-03-24T05:26:05.953Z,100696.59
2023-03-24T05:28:44.350Z,100693.91
2023-03-24T05:31:13.412Z,100692.88
2023-03-24T05:33:49.174Z,100697.06
2023-03-24T05:36:19.939Z,100708.47
2023-03-24T05:38:54.844Z,100705.81
2023-03-24T05:41:24.882Z,100702.94
2023-03-24T05:44:08.406Z,100722.94
2023-03-24T05:46:36.070Z,100705.28
2023-03-24T05:49:04.594Z,100723.59
2023-03-24T05:51:35.445Z,100722.47
2023-03-24T05:54:06.362Z,100723.34
2023-03-24T05:56:40.686Z,100728.47
2023-03-24T05:59:27.295Z,100735.44
2023-03-24T06:02:30.296Z,100743.88
2023-03-24T06:05:08.323Z,100740.38
2023-03-24T06:07:38.421Z,100740.69
2023-03-24T06:10:10.070Z,100744.03
2023-03-24T06:12:44.978Z,100738.56
2023-03-24T06:15:17.476Z,100738.91
2023-03-24T06:17:47.902Z,100731.50
2023-03-24T06:20:26.044Z,100732.28
2023-03-24T06:23:07.284Z,100733.72
2023-03-24T06:25:55.673Z,100731.41
2023-03-24T06:28:26.336Z,100737.03
2023-03-24T06:30:58.905Z,100740.94
2023-03-24T06:33:32.828Z,100729.75
2023-03-24T06:36:01.908Z,100721.81
2023-03-24T06:38:31.128Z,100731.41
2023-03-24T06:41:03.982Z,100734.09
2023-03-24T06:43:33.032Z,100734.75
2023-03-24T06:46:01.072Z,100745.06
2023-03-24T06:48:34.633Z,100734.91
2023-03-24T06:51:07.602Z,100733.25
2023-03-24T06:53:35.626Z,100748.34
2023-03-24T06:56:03.802Z,100745.63
2023-03-24T06:58:38.789Z,100746.88
2023-03-24T07:01:08.726Z,100747.19
2023-03-24T07:03:41.949Z,100751.31
2023-03-24T07:06:29.847Z,100756.53
2023-03-24T07:09:03.283Z,100747.34
2023-03-24T07:11:31.782Z,100758.38
2023-03-24T07:14:01.660Z,100767.28
2023-03-24T07:16:31.283Z,100778.59
2023-03-24T07:19:07.852Z,100767.09
2023-03-24T07:21:38.198Z,100776.16
2023-03-24T07:24:06.550Z,100775.97
2023-03-24T07:26:42.689Z,100787.44
2023-03-24T07:29:19.778Z,100781.50
2023-03-24T07:32:01.195Z,100781.41
2023-03-24T07:34:29.257Z,100789.97
2023-03-24T07:36:56.843Z,100793.38
2023-03-24T07:39:24.531Z,100787.63
2023-03-24T07:41:52.054Z,100778.34
2023-03-24T07:44:29.695Z,100775.28
2023-03-24T07:47:01.381Z,100772.22
2023-03-24T07:49:33.472Z,100767.06
2023-03-24T07:52:07.126Z,100771.88
2023-03-24T07:54:48.861Z,100758.19
2023-03-24T07:57:43.850Z,100772.47
2023-03-24T08:00:42.974Z,100764.38
2023-03-24T08:03:28.140Z,100757.69
2023-03-24T08:06:19.382Z,100769.13
2023-03-24T08:08:56.904Z,100755.03
2023-03-24T08:11:25.798Z,100764.88
2023-03-24T08:13:53.388Z,100765.50
2023-03-24T08:16:24.856Z,100766.28
2023-03-24T08:18:53.312Z,100761.69
2023-03-24T08:21:28.868Z,100766.50
2023-03-24T08:37:28.101Z,100765.34
2023-03-24T08:39:58.988Z,100767.88
2023-03-24T08:42:26.778Z,100784.50
2023-03-24T08:54:03.750Z,100770.47
2023-03-24T08:56:31.447Z,100773.25
2023-03-24T08:58:59.259Z,100787.19
2023-03-24T09:01:27.555Z,100783.59
2023-03-24T09:03:56.461Z,100773.28
2023-03-24T09:15:34.920Z,100783.47
2023-03-24T09:18:03.123Z,100786.88
2023-03-24T09:20:31.155Z,100783.44
2023-03-24T09:36:44.310Z,100771.75
2023-03-24T09:44:10.580Z,100776.22
2023-03-24T09:46:51.358Z,100776.41
2023-03-24T09:58:31.514Z,100774.56
2023-03-24T10:00:59.150Z,100774.75
2023-03-24T10:03:28.308Z,100773.97
2023-03-24T10:15:37.749Z,100775.19
2023-03-24T10:18:15.357Z,100778.34
2023-03-24T10:25:23.026Z,100758.78
2023-03-24T10:36:58.494Z,100752.78
2023-03-24T10:40:19.432Z,100747.00
2023-03-24T10:47:22.660Z,100735.19
2023-03-24T10:49:57.108Z,100737.34
2023-03-24T10:52:25.108Z,100737.59
2023-03-24T11:04:07.870Z,100720.19
2023-03-24T11:06:40.646Z,100734.34
2023-03-24T11:09:21.332Z,100725.38
2023-03-24T11:11:50.904Z,100729.69
2023-03-24T11:14:27.468Z,100726.81
2023-03-24T11:17:12.882Z,100715.09
2023-03-24T11:19:49.975Z,100706.03
2023-03-24T11:36:08.769Z,100700.22
2023-03-24T11:47:42.841Z,100689.72
2023-03-24T11:50:10.152Z,100689.00
2023-03-24T11:52:55.399Z,100677.53
2023-03-24T12:09:17.052Z,100655.09
2023-03-24T12:21:05.073Z,100639.44
2023-03-24T12:23:38.298Z,100654.59
2023-03-24T12:26:26.042Z,100655.09
2023-03-24T12:28:59.260Z,100648.47
2023-03-24T12:31:28.897Z,100636.09
2023-03-24T12:34:05.092Z,100634.28
2023-03-24T12:36:57.540Z,100621.75
2023-03-24T12:53:08.127Z,100616.78
2023-03-24T13:04:47.896Z,100598.16
2023-03-24T13:07:21.604Z,100595.28
2023-03-24T13:10:14.910Z,100591.31
2023-03-24T13:12:51.031Z,100576.84
2023-03-24T13:15:24.825Z,100569.78
2023-03-24T13:18:09.146Z,100569.81
2023-03-24T13:20:54.963Z,100572.63
2023-03-24T13:32:24.116Z,100562.88
2023-03-24T13:35:25.576Z,100572.50
2023-03-24T13:38:24.088Z,100558.84
2023-03-24T13:40:54.198Z,100555.78
2023-03-24T13:43:24.878Z,100551.88
2023-03-24T13:46:00.253Z,100550.63
2023-03-24T13:48:32.290Z,100546.97
2023-03-24T13:51:02.056Z,100545.16
2023-03-24T13:53:34.123Z,100548.25
2023-03-24T14:05:22.489Z,100523.94
2023-03-24T14:21:34.584Z,100500.88
2023-03-24T14:38:01.648Z,100488.25
2023-03-24T14:43:42.041Z,100479.38
2023-03-24T14:46:23.935Z,100473.69
2023-03-24T14:49:04.159Z,100462.19
2023-03-24T14:51:39.344Z,100470.47
2023-03-24T15:00:57.952Z,100465.22
2023-03-24T15:07:29.984Z,100460.41
2023-03-24T15:10:23.023Z,100462.50
2023-03-24T15:20:48.492Z,100471.00
2023-03-24T15:29:43.846Z,100466.44
2023-03-24T15:35:59.562Z,100454.38
2023-03-24T15:39:07.175Z,100444.81
2023-03-24T15:42:25.885Z,100437.41
2023-03-24T15:44:54.724Z,100447.84
2023-03-24T15:47:29.510Z,100451.84
2023-03-24T15:49:59.350Z,100459.03
2023-03-24T15:52:37.767Z,100449.06
2023-03-24T15:55:24.231Z,100446.28
2023-03-24T15:57:55.635Z,100451.22
2023-03-24T16:00:40.443Z,100462.16
2023-03-24T16:03:15.391Z,100456.50
2023-03-24T16:05:48.488Z,100454.16
2023-03-24T16:08:35.871Z,100461.38
2023-03-24T16:11:08.076Z,100468.94
2023-03-24T16:13:35.892Z,100453.59
2023-03-24T16:16:15.203Z,100459.50
2023-03-24T16:18:45.338Z,100449.97
2023-03-24T16:21:28.073Z,100449.88
2023-03-24T16:23:57.993Z,100459.00
2023-03-24T16:26:28.959Z,100458.75
2023-03-24T16:29:03.869Z,100462.47
2023-03-24T16:31:35.110Z,100461.56
2023-03-24T16:34:02.861Z,100454.56
2023-03-24T16:36:30.438Z,100452.53
2023-03-24T16:39:01.714Z,100446.97
2023-03-24T16:41:30.451Z,100445.63
2023-03-24T16:43:57.986Z,100453.00
2023-03-24T16:46:28.221Z,100456.56
2023-03-24T16:48:56.076Z,100461.22
2023-03-24T16:51:23.954Z,100456.88
2023-03-24T16:53:51.459Z,100451.38
2023-03-24T16:56:20.994Z,100448.72
2023-03-24T16:58:49.546Z,100444.19
2023-03-24T17:01:27.001Z,100452.75
2023-03-24T17:03:56.114Z,100458.47
2023-03-24T17:06:24.966Z,100447.84
2023-03-24T17:08:52.565Z,100452.06
2023-03-24T17:11:27.558Z,100449.91
2023-03-24T17:14:01.982Z,100447.44
2023-03-24T17:16:29.699Z,100452.66
2023-03-24T17:19:03.816Z,100461.75
2023-03-24T17:21:34.534Z,100460.13
2023-03-24T17:24:02.948Z,100463.66
2023-03-24T17:26:31.871Z,100461.56
2023-03-24T17:28:59.533Z,100457.50
2023-03-24T17:31:27.064Z,100451.63
2023-03-24T17:33:54.822Z,100454.44
2023-03-24T17:36:22.367Z,100451.94
2023-03-24T17:38:49.754Z,100443.00
2023-03-24T17:41:17.324Z,100455.56
2023-03-24T17:43:46.567Z,100450.13
2023-03-24T17:46:14.348Z,100446.41
2023-03-24T17:48:43.524Z,100450.63
2023-03-24T17:51:12.534Z,100458.28
2023-03-24T17:53:40.106Z,100455.78
2023-03-24T17:56:07.885Z,100439.19
2023-03-24T17:58:35.855Z,100447.84
2023-03-24T18:01:07.708Z,100454.47
2023-03-24T18:03:38.358Z,100447.56
2023-03-24T18:06:08.091Z,100441.59
2023-03-24T18:08:36.731Z,100438.34
2023-03-24T18:11:07.032Z,100442.50
2023-03-24T18:13:34.918Z,100451.31
2023-03-24T18:16:13.217Z,100441.84
2023-03-24T18:18:47.963Z,100429.53
2023-03-24T18:21:15.535Z,100439.63
2023-03-24T18:23:43.145Z,100431.25
2023-03-24T18:26:10.822Z,100447.88
2023-03-24T18:28:39.149Z,100444.00
2023-03-24T18:31:10.478Z,100437.78
2023-03-24T18:33:38.379Z,100433.97
2023-03-24T18:36:06.277Z,100442.88
2023-03-24T18:38:33.939Z,100445.63
2023-03-24T18:41:08.191Z,100450.50
2023-03-24T18:43:41.135Z,100450.69
2023-03-24T18:49:18.441Z,100443.69
2023-03-24T18:51:47.050Z,100451.41
2023-03-24T18:54:16.060Z,100446.13
2023-03-24T18:56:46.902Z,100446.50
2023-03-24T18:59:17.217Z,100444.19
2023-03-24T19:01:48.750Z,100437.34
2023-03-24T19:04:17.719Z,100433.22
2023-03-24T19:06:50.549Z,100433.13
2023-03-24T19:09:22.885Z,100427.91
2023-03-24T19:11:51.592Z,100439.16
2023-03-24T19:18:30.446Z,100440.47
2023-03-24T19:20:58.896Z,100436.41
2023-03-24T19:23:26.809Z,100424.06
2023-03-24T19:26:03.237Z,100425.69
2023-03-24T19:28:44.192Z,100427.41
2023-03-24T19:31:17.116Z,100427.44
2023-03-24T19:33:48.926Z,100435.44
2023-03-24T19:36:18.378Z,100434.88
2023-03-24T19:38:46.092Z,100427.91
2023-03-24T19:41:15.285Z,100437.00
2023-03-24T19:43:43.110Z,100425.97
2023-03-24T19:46:11.194Z,100428.38
2023-03-24T19:48:39.020Z,100422.53
2023-03-24T19:51:07.711Z,100423.91
2023-03-24T19:53:35.613Z,100421.31
2023-03-24T19:56:29.787Z,100437.22
2023-03-24T19:59:04.429Z,100425.34
2023-03-24T20:01:46.588Z,100430.34
2023-03-24T20:04:21.367Z,100429.34
2023-03-24T20:06:48.962Z,100426.94
2023-03-24T20:09:16.781Z,100442.41
2023-03-24T20:11:44.356Z,100433.13
2023-03-24T20:14:23.359Z,100437.25
2023-03-24T20:23:00.511Z,100445.59
2023-03-24T20:25:32.075Z,100438.19
2023-03-24T20:28:04.481Z,100436.53
2023-03-24T20:31:16.233Z,100441.75
2023-03-24T20:33:46.764Z,100438.06
2023-03-24T20:36:15.847Z,100442.81
2023-03-24T20:38:46.422Z,100450.72
2023-03-24T20:41:35.854Z,100446.53
2023-03-24T20:44:04.145Z,100443.88
2023-03-24T20:47:01.489Z,100445.06
2023-03-24T20:50:07.854Z,100445.03
2023-03-24T20:53:02.311Z,100438.09
2023-03-24T20:56:02.170Z,100451.72
2023-03-24T20:58:32.811Z,100453.28
2023-03-24T21:01:09.163Z,100451.09
2023-03-24T21:03:39.024Z,100445.59
2023-03-24T21:06:19.564Z,100439.28
2023-03-24T21:12:34.715Z,100451.09
2023-03-24T21:15:27.781Z,100448.31
2023-03-24T21:18:06.860Z,100432.81
2023-03-24T21:20:57.154Z,100444.38
2023-03-24T21:23:25.646Z,100439.88
2023-03-24T21:25:53.371Z,100437.72
2023-03-24T21:28:21.155Z,100436.16
2023-03-24T21:30:48.786Z,100442.34
2023-03-24T21:33:16.802Z,100427.81
2023-03-24T21:35:44.319Z,100429.06
2023-03-24T21:38:13.131Z,100442.53
2023-03-24T21:40:40.841Z,100433.06
2023-03-24T21:43:10.844Z,100440.97
2023-03-24T21:45:38.501Z,100448.25
2023-03-24T21:48:07.240Z,100443.31
2023-03-24T21:50:40.287Z,100440.56
2023-03-24T21:53:15.397Z,100436.91
2023-03-24T21:55:53.473Z,100437.59
2023-03-24T21:58:23.887Z,100441.38
2023-03-24T22:07:30.388Z,100425.81
2023-03-24T22:11:22.611Z,100421.28
2023-03-24T22:15:15.749Z,100430.41
2023-03-24T22:23:05.839Z,100420.69
2023-03-24T22:26:01.561Z,100424.72
2023-03-24T22:28:29.667Z,100421.66
2023-03-24T22:34:52.446Z,100420.00
2023-03-24T22:37:27.548Z,100423.09
2023-03-24T22:39:55.876Z,100414.91
2023-03-24T22:42:28.875Z,100411.03
2023-03-24T22:45:24.189Z,100412.09
2023-03-24T22:48:29.130Z,100418.19
2023-03-24T22:51:19.449Z,100414.44
2023-03-24T22:55:09.097Z,100417.91
2023-03-24T23:17:40.694Z,100408.50
2023-03-24T23:20:33.215Z,100398.97
2023-03-24T23:23:01.498Z,100416.16
2023-03-24T23:25:32.983Z,100421.28
2023-03-24T23:28:14.654Z,100420.31
2023-03-24T23:30:57.792Z,100427.59
2023-03-24T23:33:48.012Z,100421.44
2023-03-24T23:36:36.486Z,100428.19
2023-03-24T23:39:38.377Z,100416.56
2023-03-24T23:42:36.288Z,100422.47
2023-03-24T23:45:24.563Z,100425.97
2023-03-24T23:48:00.773Z,100423.22
2023-03-24T23:50:53.594Z,100423.66
2023-03-24T23:53:36.229Z,100418.78
2023-03-24T23:56:21.795Z,100412.56
2023-03-24T23:58:49.677Z,100420.31
